Time;durP1;ratioP1;P1;durP2;ratioP2;P2;SDS_P1;SDS_P2;PMS_P1;PMS_P2;Temp;Humidity;BMP_temperature;BMP_pressure;BME280_temperature;BME280_humidity;BME280_pressure;Samples;Min_cycle;Max_cycle;Signal;HPM_P1;HPM_P2
2022/02/17 00:02:17;;;;;;;0.40;0.40;;;;;;;;;;4994739;28;20369;-62
2022/02/17 00:04:43;;;;;;;0.40;0.40;;;;;;;;;;4995061;28;20409;-62
2022/02/17 00:07:09;;;;;;;0.40;0.40;;;;;;;;;;4994942;28;20769;-62
2022/02/17 00:09:35;;;;;;;0.40;0.40;;;;;;;;;;4994815;28;20536;-62
2022/02/17 00:12:01;;;;;;;0.40;0.40;;;;;;;;;;4994539;28;20629;-62
2022/02/17 00:14:27;;;;;;;0.40;0.40;;;;;;;;;;4994841;28;20492;-61
2022/02/17 00:16:53;;;;;;;0.40;0.40;;;;;;;;;;4994454;28;20507;-62
2022/02/17 00:19:20;;;;;;;0.40;0.40;;;;;;;;;;4994711;28;20638;-62
2022/02/17 00:21:47;;;;;;;0.40;0.40;;;;;;;;;;4994228;28;20456;-62
2022/02/17 00:24:14;;;;;;;0.50;0.50;;;;;;;;;;4994737;28;20273;-62
2022/02/17 00:26:40;;;;;;;0.40;0.40;;;;;;;;;;4994492;28;20568;-62
2022/02/17 00:29:06;;;;;;;0.40;0.40;;;;;;;;;;4994324;28;20264;-62
2022/02/17 00:31:32;;;;;;;0.40;0.40;;;;;;;;;;4994051;28;20594;-62
2022/02/17 00:33:58;;;;;;;0.40;0.40;;;;;;;;;;4994361;28;20421;-62
2022/02/17 00:36:24;;;;;;;0.50;0.50;;;;;;;;;;4994193;28;20465;-61
2022/02/17 00:38:50;;;;;;;0.40;0.40;;;;;;;;;;4994271;28;20220;-62
2022/02/17 00:41:18;;;;;;;0.50;0.50;;;;;;;;;;4993987;28;20424;-61
2022/02/17 00:43:44;;;;;;;0.40;0.40;;;;;;;;;;4994236;28;20414;-60
2022/02/17 00:46:10;;;;;;;0.40;0.40;;;;;;;;;;4993977;28;20214;-62
2022/02/17 00:48:36;;;;;;;0.40;0.40;;;;;;;;;;4993973;28;20527;-62
2022/02/17 00:51:02;;;;;;;0.40;0.40;;;;;;;;;;4993779;28;20528;-60
2022/02/17 00:53:28;;;;;;;0.50;0.50;;;;;;;;;;4993931;28;20465;-62
2022/02/17 00:55:54;;;;;;;0.50;0.50;;;;;;;;;;4993801;28;20174;-62
2022/02/17 00:58:20;;;;;;;0.40;0.40;;;;;;;;;;4993855;28;20406;-62
2022/02/17 01:00:46;;;;;;;0.40;0.40;;;;;;;;;;4993551;28;20405;-62
2022/02/17 01:03:12;;;;;;;0.40;0.40;;;;;;;;;;4993873;28;20413;-61
2022/02/17 01:05:38;;;;;;;0.30;0.30;;;;;;;;;;4993917;28;20417;-61
2022/02/17 01:08:04;;;;;;;0.40;0.40;;;;;;;;;;4993684;28;20430;-63
2022/02/17 01:10:30;;;;;;;0.50;0.50;;;;;;;;;;4993320;28;20301;-61
2022/02/17 01:12:56;;;;;;;0.40;0.40;;;;;;;;;;4993572;28;20850;-61
2022/02/17 01:15:22;;;;;;;0.40;0.40;;;;;;;;;;4993534;28;20493;-60
2022/02/17 01:17:48;;;;;;;0.40;0.40;;;;;;;;;;5040709;23;20487;-64
2022/02/17 01:20:14;;;;;;;0.40;0.40;;;;;;;;;;5049089;28;20187;-61
2022/02/17 01:22:45;;;;;;;0.40;0.40;;;;;;;;;;5052588;28;20176;-61
2022/02/17 01:25:11;;;;;;;0.50;0.50;;;;;;;;;;5052738;28;20433;-62
2022/02/17 01:27:37;;;;;;;0.30;0.30;;;;;;;;;;5040243;28;20287;-61
2022/02/17 01:30:03;;;;;;;0.40;0.40;;;;;;;;;;5032293;28;20291;-63
2022/02/17 01:32:29;;;;;;;0.40;0.40;;;;;;;;;;5032178;28;20407;-64
2022/02/17 01:34:55;;;;;;;0.40;0.40;;;;;;;;;;5032309;28;20567;-64
2022/02/17 01:37:21;;;;;;;0.40;0.40;;;;;;;;;;5031531;28;20497;-63
2022/02/17 01:39:47;;;;;;;0.40;0.40;;;;;;;;;;5014533;28;20852;-63
2022/02/17 01:42:13;;;;;;;0.40;0.40;;;;;;;;;;5032558;28;20419;-63
2022/02/17 01:44:39;;;;;;;0.40;0.40;;;;;;;;;;5032622;28;20465;-63
2022/02/17 01:47:09;;;;;;;0.40;0.40;;;;;;;;;;5032558;28;20193;-64
2022/02/17 01:49:36;;;;;;;0.43;0.43;;;;;;;;;;5032344;28;20489;-64
2022/02/17 01:52:03;;;;;;;0.40;0.40;;;;;;;;;;5032321;28;20201;-64
2022/02/17 01:54:30;;;;;;;0.40;0.40;;;;;;;;;;5032456;28;20180;-64
2022/02/17 01:56:57;;;;;;;0.40;0.40;;;;;;;;;;5032334;28;20193;-63
2022/02/17 01:59:23;;;;;;;0.50;0.50;;;;;;;;;;5032616;28;20189;-64
2022/02/17 02:01:49;;;;;;;0.40;0.40;;;;;;;;;;5032139;28;20281;-64
2022/02/17 02:04:15;;;;;;;0.40;0.40;;;;;;;;;;5032297;28;20404;-64
2022/02/17 02:06:41;;;;;;;0.40;0.40;;;;;;;;;;5031875;28;20209;-63
2022/02/17 02:09:07;;;;;;;0.40;0.40;;;;;;;;;;5032151;28;20946;-63
2022/02/17 02:11:33;;;;;;;0.40;0.40;;;;;;;;;;5031911;28;20869;-64
2022/02/17 02:13:59;;;;;;;0.40;0.40;;;;;;;;;;5031671;28;20227;-63
2022/02/17 02:16:25;;;;;;;0.40;0.40;;;;;;;;;;5031915;28;20172;-64
2022/02/17 02:18:51;;;;;;;0.40;0.40;;;;;;;;;;5023212;28;20189;-63
2022/02/17 02:21:20;;;;;;;0.50;0.50;;;;;;;;;;5023406;28;20177;-63
2022/02/17 02:23:46;;;;;;;0.40;0.40;;;;;;;;;;5031885;28;20455;-64
2022/02/17 02:26:12;;;;;;;0.40;0.40;;;;;;;;;;5013265;28;20795;-63
2022/02/17 02:28:40;;;;;;;0.40;0.40;;;;;;;;;;5012020;28;20975;-64
2022/02/17 02:31:06;;;;;;;0.40;0.40;;;;;;;;;;5011823;28;20419;-64
2022/02/17 02:33:32;;;;;;;0.40;0.40;;;;;;;;;;5012106;28;20173;-64
2022/02/17 02:35:58;;;;;;;0.40;0.40;;;;;;;;;;5012050;28;20433;-63
2022/02/17 02:38:24;;;;;;;0.40;0.40;;;;;;;;;;5030677;28;20436;-64
2022/02/17 02:40:50;;;;;;;0.40;0.40;;;;;;;;;;5031466;28;20628;-64
2022/02/17 02:43:16;;;;;;;0.30;0.30;;;;;;;;;;5031715;28;20185;-64
2022/02/17 02:45:45;;;;;;;0.30;0.30;;;;;;;;;;5031601;28;20172;-61
2022/02/17 02:48:14;;;;;;;0.50;0.50;;;;;;;;;;5031227;28;20200;-63
2022/02/17 02:50:40;;;;;;;0.40;0.40;;;;;;;;;;5031363;28;20567;-63
2022/02/17 02:53:06;;;;;;;0.50;0.50;;;;;;;;;;5031447;28;20188;-63
2022/02/17 02:55:32;;;;;;;0.45;0.45;;;;;;;;;;5031487;28;20180;-64
2022/02/17 02:57:58;;;;;;;0.40;0.40;;;;;;;;;;5031353;28;20227;-63
2022/02/17 03:00:25;;;;;;;0.50;0.50;;;;;;;;;;5031393;28;20262;-63
2022/02/17 03:02:51;;;;;;;0.40;0.40;;;;;;;;;;5031458;28;20180;-63
2022/02/17 03:05:17;;;;;;;0.40;0.40;;;;;;;;;;5031356;28;20302;-64
2022/02/17 03:07:43;;;;;;;0.40;0.40;;;;;;;;;;5031488;28;20291;-63
2022/02/17 03:10:09;;;;;;;0.40;0.40;;;;;;;;;;5031109;28;20463;-63
2022/02/17 03:12:35;;;;;;;0.47;0.47;;;;;;;;;;5031406;28;20788;-64
2022/02/17 03:15:01;;;;;;;0.40;0.40;;;;;;;;;;5011591;28;20169;-64
2022/02/17 03:17:27;;;;;;;0.40;0.40;;;;;;;;;;5012877;28;20220;-64
2022/02/17 03:19:53;;;;;;;0.40;0.40;;;;;;;;;;5015439;28;20174;-64
2022/02/17 03:22:19;;;;;;;0.40;0.40;;;;;;;;;;5015218;28;20765;-64
2022/02/17 03:24:45;;;;;;;0.40;0.40;;;;;;;;;;5015409;28;20417;-63
2022/02/17 03:27:11;;;;;;;0.40;0.40;;;;;;;;;;5015255;28;20429;-63
2022/02/17 03:29:37;;;;;;;0.40;0.40;;;;;;;;;;5015476;28;20462;-63
2022/02/17 03:32:03;;;;;;;0.40;0.40;;;;;;;;;;5015017;28;20401;-63
2022/02/17 03:34:29;;;;;;;0.40;0.40;;;;;;;;;;5015183;28;20169;-63
2022/02/17 03:36:56;;;;;;;0.40;0.40;;;;;;;;;;5015068;28;20294;-64
2022/02/17 03:39:22;;;;;;;0.40;0.40;;;;;;;;;;5015171;28;20201;-64
2022/02/17 03:41:47;;;;;;;0.40;0.40;;;;;;;;;;5015575;28;20178;-62
2022/02/17 03:44:14;;;;;;;0.40;0.40;;;;;;;;;;5015009;28;20416;-63
2022/02/17 03:46:41;;;;;;;0.40;0.40;;;;;;;;;;5014936;28;20490;-63
2022/02/17 03:49:06;;;;;;;0.40;0.40;;;;;;;;;;5014812;28;20287;-64
2022/02/17 03:51:32;;;;;;;0.40;0.40;;;;;;;;;;5014632;28;20220;-63
2022/02/17 03:53:58;;;;;;;0.43;0.43;;;;;;;;;;5014848;28;20420;-64
2022/02/17 03:56:24;;;;;;;0.40;0.40;;;;;;;;;;5014691;28;20405;-63
2022/02/17 03:59:03;;;;;;;0.30;0.30;;;;;;;;;;5015046;28;20419;-64
2022/02/17 04:01:30;;;;;;;0.40;0.40;;;;;;;;;;5014579;28;20459;-60
2022/02/17 04:03:56;;;;;;;0.40;0.40;;;;;;;;;;5014662;28;20186;-64
2022/02/17 04:06:22;;;;;;;0.40;0.40;;;;;;;;;;5014526;28;20544;-61
2022/02/17 04:08:49;;;;;;;0.40;0.40;;;;;;;;;;5014593;28;21034;-64
2022/02/17 04:11:14;;;;;;;0.40;0.40;;;;;;;;;;5014180;28;20749;-64
2022/02/17 04:13:40;;;;;;;0.40;0.40;;;;;;;;;;5023169;28;20215;-63
2022/02/17 04:16:06;;;;;;;0.40;0.40;;;;;;;;;;5034204;28;20878;-62
2022/02/17 04:18:32;;;;;;;0.40;0.40;;;;;;;;;;5034011;28;20223;-63
2022/02/17 04:20:58;;;;;;;0.40;0.40;;;;;;;;;;5033937;28;20408;-64
2022/02/17 04:23:24;;;;;;;0.40;0.40;;;;;;;;;;5034222;28;20404;-61
2022/02/17 04:25:50;;;;;;;0.40;0.40;;;;;;;;;;5034020;28;20891;-64
2022/02/17 04:28:16;;;;;;;0.40;0.40;;;;;;;;;;5033615;28;20433;-63
2022/02/17 04:30:42;;;;;;;0.50;0.50;;;;;;;;;;5033621;28;20496;-63
2022/02/17 04:33:08;;;;;;;0.40;0.40;;;;;;;;;;5033909;28;20400;-64
2022/02/17 04:35:34;;;;;;;0.50;0.50;;;;;;;;;;5033871;28;20407;-64
2022/02/17 04:38:00;;;;;;;0.40;0.40;;;;;;;;;;5033776;28;20423;-63
2022/02/17 04:43:10;;;;;;;0.40;0.40;;;;;;;;;;5033728;28;20407;-63
2022/02/17 04:45:37;;;;;;;0.40;0.40;;;;;;;;;;5033669;28;20690;-63
2022/02/17 04:48:04;;;;;;;0.40;0.40;;;;;;;;;;5033561;28;20219;-63
2022/02/17 04:50:30;;;;;;;0.40;0.40;;;;;;;;;;5033332;28;20212;-63
2022/02/17 04:52:56;;;;;;;0.40;0.40;;;;;;;;;;5033561;28;20168;-63
2022/02/17 04:55:22;;;;;;;0.40;0.40;;;;;;;;;;5033438;28;20837;-62
2022/02/17 04:57:48;;;;;;;0.50;0.50;;;;;;;;;;5033318;28;20461;-63
2022/02/17 05:00:14;;;;;;;0.50;0.50;;;;;;;;;;5033104;28;20256;-63
2022/02/17 05:02:40;;;;;;;0.50;0.50;;;;;;;;;;5033322;28;20415;-63
2022/02/17 05:05:06;;;;;;;0.40;0.40;;;;;;;;;;5033322;28;20201;-63
2022/02/17 05:07:32;;;;;;;0.40;0.40;;;;;;;;;;5033332;28;20578;-63
2022/02/17 05:09:58;;;;;;;0.40;0.40;;;;;;;;;;5033039;28;20200;-63
2022/02/17 05:12:24;;;;;;;0.50;0.50;;;;;;;;;;5032931;28;20400;-63
2022/02/17 05:14:50;;;;;;;0.40;0.40;;;;;;;;;;5014895;28;20780;-63
2022/02/17 05:17:17;;;;;;;0.50;0.50;;;;;;;;;;5013088;28;20476;-63
2022/02/17 05:19:43;;;;;;;0.40;0.40;;;;;;;;;;5013377;28;20416;-63
2022/02/17 05:22:09;;;;;;;0.40;0.40;;;;;;;;;;5013041;28;20269;-63
2022/02/17 05:24:35;;;;;;;0.40;0.40;;;;;;;;;;5013250;28;20412;-64
2022/02/17 05:27:01;;;;;;;0.40;0.40;;;;;;;;;;5012860;28;20425;-63
2022/02/17 05:29:26;;;;;;;0.40;0.40;;;;;;;;;;5012961;28;20989;-63
2022/02/17 05:31:52;;;;;;;0.40;0.40;;;;;;;;;;5012835;28;20182;-63
2022/02/17 05:34:18;;;;;;;0.40;0.40;;;;;;;;;;5013054;28;20447;-63
2022/02/17 05:36:45;;;;;;;0.40;0.40;;;;;;;;;;5012981;28;20428;-63
2022/02/17 05:39:11;;;;;;;0.50;0.50;;;;;;;;;;5012542;28;20181;-63
2022/02/17 05:41:37;;;;;;;0.40;0.40;;;;;;;;;;4994540;28;20181;-63
2022/02/17 05:44:03;;;;;;;0.40;0.40;;;;;;;;;;5012958;28;20181;-63
2022/02/17 05:46:29;;;;;;;0.40;0.40;;;;;;;;;;5012686;28;20189;-63
2022/02/17 05:48:55;;;;;;;0.40;0.40;;;;;;;;;;5012634;28;20204;-63
2022/02/17 05:51:21;;;;;;;0.40;0.40;;;;;;;;;;5012379;28;20174;-63
2022/02/17 05:53:48;;;;;;;0.40;0.40;;;;;;;;;;5012588;28;20487;-63
2022/02/17 05:56:13;;;;;;;0.40;0.40;;;;;;;;;;5012067;28;20648;-63
2022/02/17 05:58:39;;;;;;;0.40;0.40;;;;;;;;;;5012570;28;20265;-64
2022/02/17 06:01:05;;;;;;;0.40;0.40;;;;;;;;;;5012163;28;20436;-59
2022/02/17 06:03:31;;;;;;;0.40;0.40;;;;;;;;;;5012447;28;20423;-63
2022/02/17 06:05:57;;;;;;;0.50;0.50;;;;;;;;;;5012450;28;20408;-63
2022/02/17 06:08:23;;;;;;;0.50;0.50;;;;;;;;;;5012278;28;20530;-63
2022/02/17 06:10:49;;;;;;;0.40;0.40;;;;;;;;;;5011987;28;20460;-63
2022/02/17 06:13:15;;;;;;;0.40;0.40;;;;;;;;;;5017574;28;20774;-63
2022/02/17 06:15:41;;;;;;;0.40;0.40;;;;;;;;;;5032083;28;20168;-63
2022/02/17 06:18:07;;;;;;;0.40;0.40;;;;;;;;;;5015439;28;20460;-64
2022/02/17 06:20:33;;;;;;;0.40;0.40;;;;;;;;;;5011151;28;20463;-63
2022/02/17 06:23:00;;;;;;;0.50;0.50;;;;;;;;;;5019840;28;20181;-63
2022/02/17 06:25:26;;;;;;;0.50;0.50;;;;;;;;;;5027255;28;20939;-63
2022/02/17 06:27:52;;;;;;;0.40;0.40;;;;;;;;;;5011882;28;20578;-63
2022/02/17 06:30:19;;;;;;;0.40;0.40;;;;;;;;;;5011159;28;20206;-63
2022/02/17 06:32:46;;;;;;;0.60;0.60;;;;;;;;;;5011965;28;20561;-63
2022/02/17 06:35:12;;;;;;;0.40;0.40;;;;;;;;;;5011479;28;20189;-63
2022/02/17 06:37:38;;;;;;;0.40;0.40;;;;;;;;;;5011547;28;20197;-63
2022/02/17 06:40:04;;;;;;;0.40;0.40;;;;;;;;;;5011149;28;20523;-61
2022/02/17 06:42:30;;;;;;;0.40;0.40;;;;;;;;;;5011034;28;20428;-63
2022/02/17 06:44:56;;;;;;;0.40;0.40;;;;;;;;;;5011408;28;20192;-63
2022/02/17 06:47:22;;;;;;;0.40;0.40;;;;;;;;;;5011279;28;20438;-63
2022/02/17 06:49:48;;;;;;;0.50;0.50;;;;;;;;;;5011719;28;20464;-64
2022/02/17 06:52:14;;;;;;;0.40;0.40;;;;;;;;;;5016215;28;20444;-61
2022/02/17 06:54:42;;;;;;;0.50;0.50;;;;;;;;;;5018234;28;20216;-63
2022/02/17 06:57:07;;;;;;;0.50;0.50;;;;;;;;;;5018080;28;20859;-63
2022/02/17 06:59:33;;;;;;;0.40;0.40;;;;;;;;;;5018054;28;20189;-63
2022/02/17 07:02:00;;;;;;;0.40;0.40;;;;;;;;;;5037834;28;20414;-63
2022/02/17 07:04:26;;;;;;;0.50;0.50;;;;;;;;;;5022900;28;20183;-63
2022/02/17 07:06:52;;;;;;;0.40;0.40;;;;;;;;;;5017801;28;20631;-63
2022/02/17 07:09:18;;;;;;;0.50;0.50;;;;;;;;;;5018042;28;20460;-63
2022/02/17 07:11:44;;;;;;;0.40;0.40;;;;;;;;;;5017588;28;20928;-63
2022/02/17 07:14:10;;;;;;;0.40;0.40;;;;;;;;;;5018141;28;20173;-63
2022/02/17 07:19:05;;;;;;;0.40;0.40;;;;;;;;;;5063854;22;20268;-61
2022/02/17 07:21:31;;;;;;;0.50;0.50;;;;;;;;;;4999280;28;20185;-60
2022/02/17 07:23:57;;;;;;;0.40;0.40;;;;;;;;;;5017179;28;20192;-61
2022/02/17 07:26:23;;;;;;;0.40;0.40;;;;;;;;;;5018272;28;20416;-61
2022/02/17 07:28:49;;;;;;;0.43;0.43;;;;;;;;;;5019080;28;20415;-61
2022/02/17 07:31:15;;;;;;;0.40;0.40;;;;;;;;;;5001439;28;20170;-61
2022/02/17 07:33:41;;;;;;;0.40;0.40;;;;;;;;;;4999353;28;20175;-60
2022/02/17 07:36:09;;;;;;;0.40;0.40;;;;;;;;;;5005716;28;20241;-61
2022/02/17 07:38:35;;;;;;;0.40;0.40;;;;;;;;;;4997740;28;20834;-62
2022/02/17 07:41:01;;;;;;;0.40;0.40;;;;;;;;;;4997118;28;20175;-61
2022/02/17 07:43:28;;;;;;;0.40;0.40;;;;;;;;;;4997944;28;20180;-61
2022/02/17 07:45:54;;;;;;;0.40;0.40;;;;;;;;;;5013573;28;20223;-62
2022/02/17 07:48:20;;;;;;;0.40;0.40;;;;;;;;;;5017457;28;20189;-61
2022/02/17 07:50:46;;;;;;;0.40;0.40;;;;;;;;;;5017390;28;20212;-62
2022/02/17 07:53:11;;;;;;;0.40;0.40;;;;;;;;;;5017650;28;20837;-61
2022/02/17 07:55:37;;;;;;;0.40;0.40;;;;;;;;;;5017603;28;20490;-61
2022/02/17 07:58:10;;;;;;;0.40;0.40;;;;;;;;;;5017352;28;20436;-61
2022/02/17 08:00:36;;;;;;;0.50;0.50;;;;;;;;;;5017555;28;20565;-62
2022/02/17 08:03:02;;;;;;;0.50;0.50;;;;;;;;;;5015574;28;20169;-60
2022/02/17 08:05:28;;;;;;;0.40;0.40;;;;;;;;;;5015140;28;20420;-61
2022/02/17 08:07:54;;;;;;;0.40;0.40;;;;;;;;;;5014165;28;20432;-63
2022/02/17 08:10:21;;;;;;;0.50;0.50;;;;;;;;;;5014147;28;20205;-61
2022/02/17 08:12:47;;;;;;;0.40;0.40;;;;;;;;;;5014651;28;20471;-62
2022/02/17 08:15:13;;;;;;;0.50;0.50;;;;;;;;;;5014119;28;20178;-61
2022/02/17 08:17:39;;;;;;;0.40;0.40;;;;;;;;;;5014277;28;20527;-62
2022/02/17 08:20:06;;;;;;;0.50;0.50;;;;;;;;;;4996326;28;20276;-61
2022/02/17 08:22:32;;;;;;;0.40;0.40;;;;;;;;;;5014140;28;20413;-62
2022/02/17 08:24:58;;;;;;;0.50;0.50;;;;;;;;;;5014294;28;20174;-62
2022/02/17 08:27:24;;;;;;;0.40;0.40;;;;;;;;;;5014355;28;20943;-61
2022/02/17 08:29:50;;;;;;;0.40;0.40;;;;;;;;;;5014178;28;20998;-62
2022/02/17 08:32:16;;;;;;;0.50;0.50;;;;;;;;;;5013883;28;20411;-62
2022/02/17 08:34:41;;;;;;;0.40;0.40;;;;;;;;;;5014283;28;20397;-62
2022/02/17 08:37:08;;;;;;;0.40;0.40;;;;;;;;;;5014080;28;20424;-61
2022/02/17 08:39:33;;;;;;;0.40;0.40;;;;;;;;;;4996630;28;20452;-62
2022/02/17 08:41:59;;;;;;;0.40;0.40;;;;;;;;;;5013886;28;20219;-62
2022/02/17 08:44:25;;;;;;;0.40;0.40;;;;;;;;;;5013759;28;20409;-62
2022/02/17 08:46:51;;;;;;;0.50;0.50;;;;;;;;;;5013824;28;20884;-62
2022/02/17 08:49:17;;;;;;;0.40;0.40;;;;;;;;;;5013370;28;20467;-62
2022/02/17 08:51:43;;;;;;;0.40;0.40;;;;;;;;;;5013979;28;20409;-61
2022/02/17 08:54:09;;;;;;;0.40;0.40;;;;;;;;;;5013749;28;20699;-62
2022/02/17 08:56:35;;;;;;;0.40;0.40;;;;;;;;;;5013614;28;20373;-62
2022/02/17 08:59:02;;;;;;;0.40;0.40;;;;;;;;;;5013532;28;20431;-62
2022/02/17 09:01:28;;;;;;;0.40;0.40;;;;;;;;;;5013285;28;20353;-61
2022/02/17 09:03:54;;;;;;;0.40;0.40;;;;;;;;;;5013345;28;20485;-60
2022/02/17 09:06:20;;;;;;;0.40;0.40;;;;;;;;;;5013646;28;20418;-62
2022/02/17 09:08:47;;;;;;;0.40;0.40;;;;;;;;;;5013444;28;20437;-60
2022/02/17 09:11:13;;;;;;;0.40;0.40;;;;;;;;;;5013227;28;20407;-62
2022/02/17 09:13:39;;;;;;;0.30;0.30;;;;;;;;;;5013239;28;20457;-62
2022/02/17 09:16:05;;;;;;;0.40;0.40;;;;;;;;;;5012230;28;20877;-61
2022/02/17 09:18:31;;;;;;;0.40;0.40;;;;;;;;;;5013013;28;20445;-62
2022/02/17 09:20:57;;;;;;;0.40;0.40;;;;;;;;;;5013152;28;20183;-62
2022/02/17 09:23:23;;;;;;;0.40;0.40;;;;;;;;;;5013358;28;20870;-62
2022/02/17 09:25:49;;;;;;;0.40;0.40;;;;;;;;;;5013122;28;20411;-62
2022/02/17 09:28:15;;;;;;;0.40;0.40;;;;;;;;;;5013154;28;20428;-62
2022/02/17 09:30:43;;;;;;;0.40;0.40;;;;;;;;;;5013145;28;20472;-62
2022/02/17 09:33:09;;;;;;;0.40;0.40;;;;;;;;;;5013182;28;20396;-62
2022/02/17 09:35:35;;;;;;;0.30;0.30;;;;;;;;;;5013106;28;20923;-61
2022/02/17 09:38:01;;;;;;;0.30;0.30;;;;;;;;;;4995462;28;20432;-62
2022/02/17 09:40:27;;;;;;;0.40;0.40;;;;;;;;;;5012623;28;20409;-62
2022/02/17 09:42:53;;;;;;;0.30;0.30;;;;;;;;;;5013118;28;20918;-62
2022/02/17 09:45:20;;;;;;;0.40;0.40;;;;;;;;;;5012832;28;20416;-62
2022/02/17 09:47:46;;;;;;;0.40;0.40;;;;;;;;;;5012451;28;20657;-61
2022/02/17 09:50:14;;;;;;;0.30;0.30;;;;;;;;;;5012445;28;20435;-62
2022/02/17 09:52:40;;;;;;;0.40;0.40;;;;;;;;;;5012604;28;20425;-62
2022/02/17 09:55:16;;;;;;;0.40;0.40;;;;;;;;;;5012516;28;20428;-62
2022/02/17 09:57:42;;;;;;;0.40;0.40;;;;;;;;;;5012391;28;20433;-62
2022/02/17 10:00:09;;;;;;;0.40;0.40;;;;;;;;;;5012051;28;20431;-59
2022/02/17 10:02:35;;;;;;;0.50;0.50;;;;;;;;;;5012144;28;20417;-62
2022/02/17 10:05:03;;;;;;;0.40;0.40;;;;;;;;;;5012454;28;20416;-61
2022/02/17 10:07:36;;;;;;;0.40;0.40;;;;;;;;;;5012347;28;20201;-62
2022/02/17 10:10:04;;;;;;;0.40;0.40;;;;;;;;;;5012004;28;20758;-61
2022/02/17 10:12:50;;;;;;;0.40;0.40;;;;;;;;;;5012118;28;20405;-62
2022/02/17 10:15:24;;;;;;;0.40;0.40;;;;;;;;;;5012222;28;20375;-61
2022/02/17 10:18:10;;;;;;;0.40;0.40;;;;;;;;;;5011885;28;20451;-61
2022/02/17 10:20:54;;;;;;;0.40;0.40;;;;;;;;;;5011931;28;20502;-62
2022/02/17 10:23:25;;;;;;;0.40;0.40;;;;;;;;;;5012268;28;20178;-62
2022/02/17 10:26:02;;;;;;;0.40;0.40;;;;;;;;;;4994199;28;20518;-62
2022/02/17 10:28:28;;;;;;;0.40;0.40;;;;;;;;;;5012077;28;20266;-61
2022/02/17 10:30:56;;;;;;;0.40;0.40;;;;;;;;;;5011633;28;20212;-61
2022/02/17 10:33:22;;;;;;;0.40;0.40;;;;;;;;;;5011837;28;20265;-61
2022/02/17 10:35:51;;;;;;;0.40;0.40;;;;;;;;;;5011928;28;20680;-62
2022/02/17 10:38:21;;;;;;;0.40;0.40;;;;;;;;;;5011804;28;20543;-62
2022/02/17 10:40:54;;;;;;;0.40;0.40;;;;;;;;;;5011616;28;20180;-62
2022/02/17 10:43:21;;;;;;;0.40;0.40;;;;;;;;;;5011827;28;20174;-62
2022/02/17 10:45:48;;;;;;;0.50;0.50;;;;;;;;;;5012041;28;20177;-62
2022/02/17 10:48:20;;;;;;;0.40;0.40;;;;;;;;;;5011657;28;20216;-61
2022/02/17 10:51:06;;;;;;;0.43;0.43;;;;;;;;;;5011899;28;20295;-61
2022/02/17 10:53:40;;;;;;;0.40;0.40;;;;;;;;;;4998020;28;20190;-61
2022/02/17 10:56:07;;;;;;;0.40;0.40;;;;;;;;;;5011745;28;20241;-62
2022/02/17 10:58:36;;;;;;;0.40;0.40;;;;;;;;;;5011591;28;21044;-61
2022/02/17 11:01:03;;;;;;;0.40;0.40;;;;;;;;;;5011407;28;20933;-62
2022/02/17 11:03:29;;;;;;;0.40;0.40;;;;;;;;;;5010486;28;20233;-62
2022/02/17 11:05:55;;;;;;;0.40;0.40;;;;;;;;;;5011500;28;20178;-62
2022/02/17 11:08:22;;;;;;;0.30;0.30;;;;;;;;;;5011498;28;20800;-62
2022/02/17 11:10:48;;;;;;;0.40;0.40;;;;;;;;;;5011142;28;20539;-62
2022/02/17 11:13:22;;;;;;;0.30;0.30;;;;;;;;;;5011320;28;20425;-62
2022/02/17 11:15:49;;;;;;;0.40;0.40;;;;;;;;;;5011516;28;20443;-62
2022/02/17 11:18:16;;;;;;;0.40;0.40;;;;;;;;;;5011178;28;20474;-62
2022/02/17 11:20:42;;;;;;;0.40;0.40;;;;;;;;;;5011132;28;20412;-62
2022/02/17 11:23:08;;;;;;;0.40;0.40;;;;;;;;;;4994195;28;20416;-61
2022/02/17 11:25:34;;;;;;;0.40;0.40;;;;;;;;;;5011316;28;20440;-61
2022/02/17 11:28:00;;;;;;;0.30;0.30;;;;;;;;;;5011155;28;20928;-59
2022/02/17 11:30:31;;;;;;;0.40;0.40;;;;;;;;;;5010913;28;20467;-61
2022/02/17 11:33:15;;;;;;;0.40;0.40;;;;;;;;;;5011347;28;20795;-61
2022/02/17 11:35:41;;;;;;;0.30;0.30;;;;;;;;;;5011221;28;20479;-61
2022/02/17 11:38:26;;;;;;;0.40;0.40;;;;;;;;;;5011926;28;20467;-61
2022/02/17 11:41:11;;;;;;;0.40;0.40;;;;;;;;;;5014747;28;20409;-63
2022/02/17 11:43:38;;;;;;;0.40;0.40;;;;;;;;;;5015112;28;20409;-61
2022/02/17 11:46:05;;;;;;;0.40;0.40;;;;;;;;;;5014952;28;20420;-61
2022/02/17 11:48:37;;;;;;;0.40;0.40;;;;;;;;;;5014185;28;20928;-61
2022/02/17 11:51:16;;;;;;;0.40;0.40;;;;;;;;;;4995010;28;20471;-61
2022/02/17 11:53:44;;;;;;;0.40;0.40;;;;;;;;;;5014224;28;20420;-61
2022/02/17 11:56:16;;;;;;;0.40;0.40;;;;;;;;;;5014786;28;20487;-61
2022/02/17 11:58:45;;;;;;;0.40;0.40;;;;;;;;;;5014415;28;20420;-61
2022/02/17 12:01:27;;;;;;;0.40;0.40;;;;;;;;;;5014593;28;20412;-62
2022/02/17 12:04:08;;;;;;;0.40;0.40;;;;;;;;;;5014497;28;20408;-62
2022/02/17 12:06:41;;;;;;;0.30;0.30;;;;;;;;;;5014626;28;20390;-62
2022/02/17 12:09:08;;;;;;;0.30;0.30;;;;;;;;;;5014294;28;20459;-62
2022/02/17 12:11:38;;;;;;;0.40;0.40;;;;;;;;;;5013938;28;20421;-61
2022/02/17 12:14:05;;;;;;;0.30;0.30;;;;;;;;;;5014356;28;20402;-61
2022/02/17 12:16:41;;;;;;;0.40;0.40;;;;;;;;;;5013850;28;20379;-62
2022/02/17 12:19:17;;;;;;;0.40;0.40;;;;;;;;;;5014183;28;20413;-61
2022/02/17 12:21:44;;;;;;;0.40;0.40;;;;;;;;;;5013946;28;20517;-61
2022/02/17 12:24:12;;;;;;;0.30;0.30;;;;;;;;;;5014521;28;20408;-63
2022/02/17 12:26:43;;;;;;;0.40;0.40;;;;;;;;;;5014360;28;20409;-62
2022/02/17 12:29:22;;;;;;;0.40;0.40;;;;;;;;;;5013937;28;20524;-62
2022/02/17 12:31:49;;;;;;;0.40;0.40;;;;;;;;;;5014671;28;20461;-62
2022/02/17 12:34:15;;;;;;;0.40;0.40;;;;;;;;;;5014315;28;20745;-62
2022/02/17 12:36:41;;;;;;;0.40;0.40;;;;;;;;;;5013920;28;20881;-62
2022/02/17 12:39:08;;;;;;;0.40;0.40;;;;;;;;;;5013494;28;20423;-62
2022/02/17 12:41:34;;;;;;;0.40;0.40;;;;;;;;;;5012662;28;20444;-62
2022/02/17 12:44:00;;;;;;;0.40;0.40;;;;;;;;;;5013310;28;20431;-62
2022/02/17 12:46:27;;;;;;;0.40;0.40;;;;;;;;;;5013649;28;20673;-62
2022/02/17 12:48:53;;;;;;;0.40;0.40;;;;;;;;;;5012627;28;20460;-62
2022/02/17 12:51:30;;;;;;;0.40;0.40;;;;;;;;;;5012111;28;20820;-61
2022/02/17 12:53:57;;;;;;;0.40;0.40;;;;;;;;;;5013038;28;20495;-63
2022/02/17 12:56:27;;;;;;;0.30;0.30;;;;;;;;;;5013672;28;20379;-63
2022/02/17 12:58:54;;;;;;;0.40;0.40;;;;;;;;;;5013609;28;20457;-62
2022/02/17 13:01:23;;;;;;;0.40;0.40;;;;;;;;;;5013160;28;20416;-62
2022/02/17 13:03:48;;;;;;;0.40;0.40;;;;;;;;;;5013642;28;20386;-61
2022/02/17 13:06:17;;;;;;;0.40;0.40;;;;;;;;;;5013505;28;20424;-62
2022/02/17 13:08:44;;;;;;;0.40;0.40;;;;;;;;;;5013489;28;20407;-63
2022/02/17 13:11:13;;;;;;;0.40;0.40;;;;;;;;;;5013278;28;20416;-63
2022/02/17 13:13:39;;;;;;;0.40;0.40;;;;;;;;;;5013621;28;20393;-63
2022/02/17 13:16:05;;;;;;;0.40;0.40;;;;;;;;;;5013782;28;20256;-61
2022/02/17 13:18:31;;;;;;;0.40;0.40;;;;;;;;;;5010302;22;20474;-61
2022/02/17 13:21:11;;;;;;;0.40;0.40;;;;;;;;;;4973341;28;20403;-61
2022/02/17 13:23:37;;;;;;;0.40;0.40;;;;;;;;;;4974042;28;20405;-61
2022/02/17 13:26:03;;;;;;;0.50;0.50;;;;;;;;;;4974121;28;20865;-61
2022/02/17 13:28:29;;;;;;;0.40;0.40;;;;;;;;;;4973977;28;20426;-61
2022/02/17 13:30:55;;;;;;;0.40;0.40;;;;;;;;;;4973654;28;20544;-61
2022/02/17 13:33:27;;;;;;;0.40;0.40;;;;;;;;;;4973975;28;20406;-61
2022/02/17 13:35:56;;;;;;;0.40;0.40;;;;;;;;;;4973979;28;20410;-60
2022/02/17 13:38:26;;;;;;;0.40;0.40;;;;;;;;;;4973714;28;20218;-60
2022/02/17 13:40:58;;;;;;;0.40;0.40;;;;;;;;;;4973610;28;20198;-60
2022/02/17 13:43:24;;;;;;;0.40;0.40;;;;;;;;;;4973854;28;20471;-60
2022/02/17 13:46:00;;;;;;;0.40;0.40;;;;;;;;;;4973747;28;20175;-61
2022/02/17 13:48:31;;;;;;;0.40;0.40;;;;;;;;;;4973722;28;20266;-60
2022/02/17 13:51:04;;;;;;;0.40;0.40;;;;;;;;;;4973364;28;20633;-60
2022/02/17 13:53:38;;;;;;;0.40;0.40;;;;;;;;;;4973762;28;20418;-61
2022/02/17 13:56:06;;;;;;;0.40;0.40;;;;;;;;;;4973732;28;20179;-61
2022/02/17 13:58:33;;;;;;;0.50;0.50;;;;;;;;;;4973485;28;20419;-61
2022/02/17 14:00:59;;;;;;;0.40;0.40;;;;;;;;;;4972650;28;20907;-60
2022/02/17 14:03:26;;;;;;;0.40;0.40;;;;;;;;;;4973519;28;20651;-60
2022/02/17 14:05:53;;;;;;;0.40;0.40;;;;;;;;;;4973599;28;20187;-60
2022/02/17 14:08:19;;;;;;;0.40;0.40;;;;;;;;;;4973264;28;20498;-61
2022/02/17 14:10:45;;;;;;;0.40;0.40;;;;;;;;;;4973295;28;20203;-60
2022/02/17 14:13:11;;;;;;;0.40;0.40;;;;;;;;;;4973403;28;20895;-60
2022/02/17 14:15:38;;;;;;;0.40;0.40;;;;;;;;;;4973481;28;20489;-60
2022/02/17 14:18:04;;;;;;;0.40;0.40;;;;;;;;;;4973242;28;20207;-60
2022/02/17 14:20:30;;;;;;;0.50;0.50;;;;;;;;;;4973017;28;20703;-60
2022/02/17 14:22:56;;;;;;;0.50;0.50;;;;;;;;;;4973152;28;20406;-60
2022/02/17 14:25:22;;;;;;;0.40;0.40;;;;;;;;;;4973180;28;20414;-60
2022/02/17 14:27:48;;;;;;;0.40;0.40;;;;;;;;;;4973077;28;20199;-60
2022/02/17 14:30:14;;;;;;;0.40;0.40;;;;;;;;;;4972707;28;20206;-61
2022/02/17 14:32:40;;;;;;;0.50;0.50;;;;;;;;;;4973022;28;20183;-60
2022/02/17 14:35:09;;;;;;;0.40;0.40;;;;;;;;;;4973169;28;20461;-60
2022/02/17 14:37:35;;;;;;;0.40;0.40;;;;;;;;;;4972912;28;20953;-60
2022/02/17 14:40:02;;;;;;;0.40;0.40;;;;;;;;;;4972895;28;20411;-60
2022/02/17 14:42:27;;;;;;;0.40;0.40;;;;;;;;;;4972634;28;20175;-61
2022/02/17 14:44:53;;;;;;;0.40;0.40;;;;;;;;;;4972701;28;20175;-61
2022/02/17 14:47:19;;;;;;;0.40;0.40;;;;;;;;;;4974444;28;20572;-61
2022/02/17 14:49:49;;;;;;;0.40;0.40;;;;;;;;;;4992084;28;20461;-61